Time;durP1;ratioP1;P1;durP2;ratioP2;P2;SDS_P1;SDS_P2;PMS_P1;PMS_P2;Temp;Humidity;BMP_temperature;BMP_pressure;BME280_temperature;BME280_humidity;BME280_pressure;Samples;Min_cycle;Max_cycle;Signal;HPM_P1;HPM_P2
2021/03/01 05:43:25;;;;;;;;;;;;;;;3.16;62.24;101950.06;5282789;26;19973;-88
2021/03/01 05:45:54;;;;;;;;;;;;;;;3.05;63.03;101961.59;5271311;27;19973;-88
2021/03/01 05:51:58;;;;;;;;;;;;;;;3.40;62.27;101958.13;5291310;27;19953;-88
2021/03/01 05:54:46;;;;;;;;;;;;;;;3.86;60.96;101962.94;5288934;27;20603;-88
2021/03/01 05:57:14;;;;;;;;;;;;;;;4.21;59.79;101961.94;5268395;27;19966;-89
2021/03/01 05:59:41;;;;;;;;;;;;;;;4.64;58.37;101963.81;5284574;27;20028;-88
2021/03/01 11:27:30;;;;;;;;;;;;;;;13.32;35.59;102070.87;5281352;27;20326;-86
2021/03/01 11:30:07;;;;;;;;;;;;;;;13.48;36.15;102063.13;5281743;27;20316;-87
2021/03/01 11:32:42;;;;;;;;;;;;;;;13.36;37.28;102063.91;5279553;27;19972;-86
2021/03/01 15:39:07;;;;;;;;;;;;;;;15.73;33.78;101996.97;5281756;27;19973;-86
2021/03/01 15:41:53;;;;;;;;;;;;;;;16.15;33.40;102006.63;5292269;27;20020;-85
2021/03/01 15:44:20;;;;;;;;;;;;;;;15.59;33.21;102004.94;5292716;27;19938;-85
2021/03/01 15:47:07;;;;;;;;;;;;;;;15.63;33.48;102002.25;5293462;27;19941;-88
2021/03/01 15:49:53;;;;;;;;;;;;;;;15.39;34.05;102013.75;5290118;27;19950;-87
2021/03/01 15:52:37;;;;;;;;;;;;;;;15.01;34.87;102016.37;5295354;27;19964;-87
2021/03/01 15:55:10;;;;;;;;;;;;;;;15.08;34.89;102018.12;5289458;27;19945;-87
2021/03/01 15:57:40;;;;;;;;;;;;;;;14.35;36.43;102017.88;5294302;27;19968;-87
2021/03/01 16:00:24;;;;;;;;;;;;;;;14.45;35.90;102028.53;5295399;27;19941;-88
2021/03/01 16:03:11;;;;;;;;;;;;;;;14.36;36.02;102020.56;5289742;27;19937;-85
2021/03/01 16:05:42;;;;;;;;;;;;;;;13.75;37.18;102028.12;5293719;27;19937;-84
2021/03/01 16:30:39;;;;;;;;;;;;;;;12.47;40.25;102047.97;5291318;27;20972;-86
2021/03/01 16:33:09;;;;;;;;;;;;;;;12.45;40.06;102054.06;5292264;27;19942;-86
2021/03/01 16:35:37;;;;;;;;;;;;;;;12.32;40.15;102057.41;5291618;27;19969;-86
2021/03/01 16:38:19;;;;;;;;;;;;;;;12.44;39.99;102061.09;5291641;27;19942;-86
2021/03/01 16:40:48;;;;;;;;;;;;;;;12.72;39.46;102064.06;5294083;27;19933;-87
2021/03/01 16:43:24;;;;;;;;;;;;;;;12.52;39.86;102063.81;5293783;27;19948;-87
2021/03/01 16:46:16;;;;;;;;;;;;;;;12.93;38.90;102074.84;5295166;27;19948;-87
2021/03/01 16:49:09;;;;;;;;;;;;;;;12.93;38.74;102073.97;5292108;27;19960;-88
2021/03/01 16:51:52;;;;;;;;;;;;;;;13.15;38.76;102083.91;5295233;27;19941;-87
2021/03/01 16:54:49;;;;;;;;;;;;;;;13.52;38.05;102073.72;5295291;27;19948;-87
2021/03/01 16:57:50;;;;;;;;;;;;;;;13.51;38.05;102079.88;5294794;27;19977;-87
2021/03/01 17:00:52;;;;;;;;;;;;;;;13.72;38.09;102081.81;5293939;27;19937;-88
2021/03/01 17:04:12;;;;;;;;;;;;;;;13.93;37.49;102081.09;5296152;27;20012;-86
2021/03/01 17:07:35;;;;;;;;;;;;;;;13.85;37.46;102088.97;5296191;27;20638;-87
2021/03/01 17:10:34;;;;;;;;;;;;;;;13.98;37.26;102083.78;5266643;27;19955;-88
2021/03/01 17:16:33;;;;;;;;;;;;;;;14.06;36.62;102090.00;5259192;27;19946;-89
2021/03/01 17:19:55;;;;;;;;;;;;;;;14.07;36.42;102097.06;5273553;27;19977;-89
2021/03/01 17:23:13;;;;;;;;;;;;;;;13.83;37.11;102101.28;5257858;27;19944;-87
2021/03/01 17:26:11;;;;;;;;;;;;;;;13.89;37.03;102105.75;5256381;27;19968;-87
2021/03/01 17:29:06;;;;;;;;;;;;;;;13.81;37.28;102108.31;5272012;27;19998;-88
2021/03/01 17:31:52;;;;;;;;;;;;;;;13.87;37.22;102104.84;5239556;27;19971;-89
2021/03/01 17:34:46;;;;;;;;;;;;;;;13.79;37.35;102115.31;5255776;27;19981;-88
2021/03/01 17:37:32;;;;;;;;;;;;;;;13.77;37.26;102113.56;5272317;27;20279;-88
2021/03/01 17:43:21;;;;;;;;;;;;;;;13.12;37.81;102118.19;5268680;27;19981;-88
2021/03/01 17:50:16;;;;;;;;;;;;;;;12.99;38.24;102128.56;5296270;27;19945;-87
2021/03/01 17:53:35;;;;;;;;;;;;;;;13.06;37.95;102131.31;5296103;27;19937;-88
2021/03/01 17:57:08;;;;;;;;;;;;;;;13.12;38.04;102133.12;5286182;27;19948;-88
2021/03/01 17:59:55;;;;;;;;;;;;;;;12.99;38.59;102129.44;5295694;27;19946;-88
2021/03/01 18:06:03;;;;;;;;;;;;;;;12.89;38.81;102131.09;5295838;27;19948;-88
2021/03/01 18:09:15;;;;;;;;;;;;;;;12.64;39.38;102139.56;5292694;27;20021;-88
2021/03/01 18:12:02;;;;;;;;;;;;;;;12.56;39.21;102130.66;5295246;27;19975;-88
2021/03/01 18:14:45;;;;;;;;;;;;;;;12.43;39.44;102140.16;5294382;27;19934;-89
2021/03/01 18:39:40;;;;;;;;;;;;;;;12.07;41.90;102158.94;5261653;27;20005;-88
2021/03/01 18:42:37;;;;;;;;;;;;;;;11.69;42.24;102159.13;5290825;27;19946;-87
2021/03/01 18:47:57;;;;;;;;;;;;;;;11.43;42.26;102162.16;5293957;27;19980;-87
2021/03/01 18:51:22;;;;;;;;;;;;;;;11.48;42.05;102168.41;5295804;27;19948;-89
2021/03/01 18:54:25;;;;;;;;;;;;;;;11.50;42.16;102165.78;5293339;27;19980;-89
2021/03/01 18:57:02;;;;;;;;;;;;;;;11.47;42.08;102169.28;5293412;27;19964;-88
2021/03/01 18:59:42;;;;;;;;;;;;;;;11.48;41.93;102168.41;5294082;27;19949;-88
2021/03/01 19:02:17;;;;;;;;;;;;;;;11.39;41.83;102170.88;5293154;27;19933;-88
2021/03/01 19:05:12;;;;;;;;;;;;;;;11.48;42.07;102170.16;5293482;27;19937;-88
2021/03/01 19:11:42;;;;;;;;;;;;;;;11.20;42.71;102180.13;5294721;27;19977;-87
2021/03/01 19:14:23;;;;;;;;;;;;;;;10.98;44.10;102185.84;5293670;27;19980;-88
2021/03/01 19:17:03;;;;;;;;;;;;;;;10.85;44.75;102176.78;5294738;27;19944;-88
2021/03/01 19:20:31;;;;;;;;;;;;;;;10.73;45.19;102179.16;5291871;27;19969;-88
2021/03/01 19:23:17;;;;;;;;;;;;;;;10.60;45.35;102186.75;5294004;27;20781;-88
2021/03/01 19:25:54;;;;;;;;;;;;;;;10.55;45.36;102190.13;5295356;27;20013;-88
2021/03/01 19:28:53;;;;;;;;;;;;;;;10.38;44.86;102197.62;5269796;27;19942;-88
2021/03/01 19:31:58;;;;;;;;;;;;;;;10.24;44.42;102186.78;5282525;27;19969;-88
2021/03/01 19:35:00;;;;;;;;;;;;;;;9.71;45.17;102192.44;5294409;27;19982;-88
2021/03/01 19:38:31;;;;;;;;;;;;;;;10.09;43.95;102187.28;5295357;27;19953;-88
2021/03/01 19:48:01;;;;;;;;;;;;;;;9.90;45.09;102211.28;5251858;27;20044;-89
2021/03/01 20:01:23;;;;;;;;;;;;;;;9.60;46.72;102211.38;5251997;27;19985;-88
2021/03/01 20:03:58;;;;;;;;;;;;;;;9.55;46.55;102208.59;5235290;27;19977;-88
2021/03/01 20:06:35;;;;;;;;;;;;;;;9.35;47.08;102218.53;5251591;27;19993;-87
2021/03/01 20:09:36;;;;;;;;;;;;;;;8.05;53.17;102240.69;5208186;27;19950;-88
2021/03/01 20:12:41;;;;;;;;;;;;;;;7.94;52.26;102238.59;5193431;27;19990;-89
2021/03/01 20:15:35;;;;;;;;;;;;;;;7.97;52.28;102238.69;5215482;27;20013;-89
2021/03/01 20:22:01;;;;;;;;;;;;;;;7.81;53.40;102236.38;5230528;27;19998;-88
2021/03/01 20:25:22;;;;;;;;;;;;;;;7.76;53.41;102234.44;5229780;27;19973;-88
2021/03/01 20:28:39;;;;;;;;;;;;;;;7.81;51.16;102239.00;5209200;27;19934;-87
2021/03/01 20:31:50;;;;;;;;;;;;;;;7.95;50.10;102239.47;5229243;27;19942;-88
2021/03/01 20:35:02;;;;;;;;;;;;;;;7.87;49.37;102248.78;5230818;27;19987;-89
2021/03/01 20:40:48;;;;;;;;;;;;;;;8.03;50.17;102255.44;5237130;27;19966;-88
2021/03/01 20:55:45;;;;;;;;;;;;;;;8.22;47.67;102259.59;5187841;27;19987;-88
2021/03/01 20:58:30;;;;;;;;;;;;;;;8.20;47.83;102265.62;5187568;27;19957;-87
2021/03/01 21:01:15;;;;;;;;;;;;;;;8.21;48.32;102269.19;5187967;27;20676;-89
2021/03/01 21:04:08;;;;;;;;;;;;;;;7.69;50.73;102264.75;5185789;27;19959;-88
2021/03/01 21:07:00;;;;;;;;;;;;;;;7.50;50.88;102269.31;5187378;27;19942;-88
2021/03/01 21:09:56;;;;;;;;;;;;;;;7.30;51.86;102264.19;5206650;27;20094;-88
2021/03/01 21:12:47;;;;;;;;;;;;;;;7.36;51.42;102274.88;5193458;27;19973;-88
2021/03/01 21:16:00;;;;;;;;;;;;;;;7.00;51.30;102278.75;5195855;27;19939;-88
2021/03/01 21:18:59;;;;;;;;;;;;;;;6.80;51.99;102269.25;5207723;27;19987;-87
2021/03/01 21:22:26;;;;;;;;;;;;;;;7.15;50.73;102261.88;5200770;27;19953;-87
2021/03/01 21:25:13;;;;;;;;;;;;;;;7.11;51.27;102267.81;5229526;27;19947;-88
2021/03/01 21:31:48;;;;;;;;;;;;;;;6.77;49.75;102279.56;5211137;27;19990;-88
2021/03/01 21:34:42;;;;;;;;;;;;;;;6.61;49.85;102280.66;5236009;27;19939;-86
2021/03/01 21:37:38;;;;;;;;;;;;;;;6.02;53.47;102282.56;5248855;27;19942;-87
2021/03/01 21:40:45;;;;;;;;;;;;;;;6.58;52.83;102283.16;5252764;27;19964;-86
2021/03/01 21:49:22;;;;;;;;;;;;;;;6.25;53.47;102282.66;5252555;27;19957;-88
2021/03/01 21:52:04;;;;;;;;;;;;;;;6.20;52.29;102285.06;5251559;27;19940;-87
2021/03/01 21:54:40;;;;;;;;;;;;;;;6.52;52.14;102294.22;5232396;27;19972;-87
2021/03/01 21:57:29;;;;;;;;;;;;;;;6.38;52.38;102292.78;5195051;27;19945;-89
2021/03/01 22:00:22;;;;;;;;;;;;;;;5.96;53.59;102299.69;5246261;27;19950;-88
2021/03/01 22:03:37;;;;;;;;;;;;;;;5.97;51.84;102298.84;5251234;27;19957;-89
2021/03/01 22:06:23;;;;;;;;;;;;;;;6.11;52.73;102296.00;5251815;27;19954;-88
2021/03/01 22:20:06;;;;;;;;;;;;;;;6.11;52.09;102295.13;5273686;27;19981;-88
2021/03/01 22:23:20;;;;;;;;;;;;;;;6.04;52.05;102299.19;5274099;27;19968;-87
2021/03/01 22:26:04;;;;;;;;;;;;;;;6.36;51.93;102302.28;5271830;27;19942;-87
2021/03/01 22:29:19;;;;;;;;;;;;;;;6.02;53.27;102315.59;5273436;27;19937;-87
2021/03/01 22:33:00;;;;;;;;;;;;;;;5.50;56.41;102308.03;5273188;27;19941;-86
2021/03/01 22:39:08;;;;;;;;;;;;;;;5.66;56.86;102316.62;5272909;27;19933;-88
2021/03/01 22:42:06;;;;;;;;;;;;;;;5.57;55.86;102320.53;5273081;27;19937;-87
2021/03/01 22:48:25;;;;;;;;;;;;;;;5.61;53.52;102323.34;5273513;27;19985;-89
2021/03/01 22:51:20;;;;;;;;;;;;;;;5.75;53.24;102333.50;5273042;27;19973;-86
2021/03/01 22:53:53;;;;;;;;;;;;;;;6.00;52.23;102326.00;5270157;27;19981;-87
2021/03/01 22:56:57;;;;;;;;;;;;;;;5.92;52.21;102330.81;5265255;27;19942;-88
2021/03/01 22:59:41;;;;;;;;;;;;;;;5.83;52.35;102330.44;5270349;27;19998;-86
2021/03/01 23:05:50;;;;;;;;;;;;;;;4.81;56.94;102338.69;5273336;27;19946;-87
2021/03/01 23:08:51;;;;;;;;;;;;;;;5.86;52.85;102332.28;5273508;27;19946;-86
2021/03/01 23:11:51;;;;;;;;;;;;;;;5.57;54.22;102339.69;5274261;27;19998;-87
2021/03/01 23:14:40;;;;;;;;;;;;;;;5.46;52.83;102341.78;5274490;27;19945;-87
2021/03/01 23:17:44;;;;;;;;;;;;;;;5.61;51.92;102348.53;5273436;27;19968;-88
2021/03/01 23:20:30;;;;;;;;;;;;;;;5.33;53.05;102344.66;5286499;27;19942;-86
2021/03/01 23:23:26;;;;;;;;;;;;;;;5.52;52.35;102340.28;5274080;27;19945;-87
2021/03/01 23:26:28;;;;;;;;;;;;;;;5.34;53.61;102353.38;5274379;27;19934;-88
2021/03/01 23:29:31;;;;;;;;;;;;;;;5.57;52.76;102350.12;5273158;27;19938;-87
2021/03/01 23:35:36;;;;;;;;;;;;;;;5.62;53.20;102351.22;5274358;27;20027;-87
2021/03/01 23:38:50;;;;;;;;;;;;;;;5.77;52.36;102344.91;5291393;27;19953;-87
2021/03/01 23:41:25;;;;;;;;;;;;;;;5.79;52.39;102348.47;5277698;27;20009;-87
2021/03/01 23:44:26;;;;;;;;;;;;;;;5.67;52.43;102354.91;5295244;27;19942;-87
2021/03/01 23:47:27;;;;;;;;;;;;;;;5.68;51.99;102354.09;5294562;27;19964;-87
2021/03/01 23:50:36;;;;;;;;;;;;;;;5.47;53.70;102355.72;5235983;27;20009;-89
2021/03/01 23:53:45;;;;;;;;;;;;;;;5.49;52.45;102347.97;5256436;27;19997;-86
2021/03/01 23:57:04;;;;;;;;;;;;;;;5.52;52.24;102354.22;5246623;27;19973;-87
2021/03/01 23:59:37;;;;;;;;;;;;;;;5.33;52.42;102346.38;5273549;27;19981;-87
